Time;durP1;ratioP1;P1;durP2;ratioP2;P2;SDS_P1;SDS_P2;PMS_P1;PMS_P2;Temp;Humidity;BMP_temperature;BMP_pressure;BME280_temperature;BME280_humidity;BME280_pressure;Samples;Min_cycle;Max_cycle;Signal;HPM_P1;HPM_P2
2023/07/16 00:03:15;;;;;;;13.80;9.90;;;19.90;99.90;;;;;;8291589;28;20033;-85
2023/07/16 00:07:17;;;;;;;17.70;10.73;;;19.90;99.90;;;;;;8310927;28;20515;-85
2023/07/16 00:11:17;;;;;;;16.35;10.88;;;19.80;99.90;;;;;;8297381;28;20018;-86
2023/07/16 00:15:18;;;;;;;13.75;9.95;;;19.80;99.90;;;;;;8310735;28;20603;-86
2023/07/16 00:19:19;;;;;;;14.30;9.57;;;19.80;99.90;;;;;;8311433;28;20033;-87
2023/07/16 00:23:19;;;;;;;18.48;9.98;;;19.90;99.90;;;;;;8310975;28;20033;-88
2023/07/16 00:27:20;;;;;;;14.43;9.73;;;19.80;99.90;;;;;;8313825;28;20037;-86
2023/07/16 00:31:20;;;;;;;15.43;9.70;;;19.50;99.90;;;;;;8314263;28;20087;-86
2023/07/16 00:35:21;;;;;;;11.18;8.50;;;19.60;99.90;;;;;;8307665;28;20053;-87
2023/07/16 00:39:21;;;;;;;8.55;6.20;;;19.70;99.90;;;;;;8312789;28;20029;-86
2023/07/16 00:43:22;;;;;;;9.65;6.03;;;19.70;99.90;;;;;;8315491;28;20067;-87
2023/07/16 00:47:22;;;;;;;7.53;6.05;;;19.60;99.90;;;;;;8308626;28;20026;-85
2023/07/16 00:51:25;;;;;;;9.73;6.68;;;19.60;99.90;;;;;;8293624;28;20045;-87
2023/07/16 00:55:27;;;;;;;8.38;6.75;;;19.20;99.90;;;;;;8291403;28;20708;-86
2023/07/16 00:59:27;;;;;;;14.25;6.70;;;19.20;99.90;;;;;;8310120;28;20129;-87
2023/07/16 01:03:28;;;;;;;11.55;6.45;;;19.10;99.90;;;;;;8278854;28;20026;-85
2023/07/16 01:07:30;;;;;;;13.23;6.22;;;19.20;99.90;;;;;;8309974;28;20169;-88
2023/07/16 01:11:32;;;;;;;17.25;6.97;;;19.10;99.90;;;;;;8312678;28;20388;-87
2023/07/16 01:15:32;;;;;;;10.07;7.40;;;19.00;99.90;;;;;;8310249;28;20030;-87
2023/07/16 01:19:34;;;;;;;7.45;6.28;;;19.00;99.90;;;;;;8310809;28;20105;-87
2023/07/16 01:24:02;;;;;;;9.27;6.03;;;19.20;99.90;;;;;;8308026;28;20033;-86
2023/07/16 01:28:17;;;;;;;9.02;5.85;;;19.10;99.90;;;;;;8309741;28;20084;-86
2023/07/16 01:32:18;;;;;;;6.72;6.03;;;19.10;99.90;;;;;;8301016;28;20506;-86
2023/07/16 01:36:20;;;;;;;9.48;6.18;;;19.30;99.90;;;;;;8302179;28;20022;-86
2023/07/16 01:40:21;;;;;;;8.07;6.60;;;19.30;99.90;;;;;;8317984;28;20026;-85
2023/07/16 01:44:22;;;;;;;13.02;6.10;;;19.30;99.90;;;;;;8319500;28;20114;-88
2023/07/16 01:48:37;;;;;;;9.85;5.70;;;19.40;99.90;;;;;;8319221;28;20030;-88
2023/07/16 01:52:37;;;;;;;5.38;4.85;;;19.40;99.90;;;;;;8301050;28;20376;-86
2023/07/16 01:56:38;;;;;;;7.70;4.82;;;19.10;99.90;;;;;;8322482;28;20022;-87
2023/07/16 02:00:39;;;;;;;5.20;3.20;;;18.90;99.90;;;;;;8320839;28;20034;-86
2023/07/16 02:04:39;;;;;;;6.72;2.70;;;18.70;99.90;;;;;;8315617;28;20037;-87
2023/07/16 02:08:40;;;;;;;4.20;3.38;;;18.60;99.90;;;;;;8316266;28;20022;-85
2023/07/16 02:12:40;;;;;;;5.47;3.53;;;18.50;99.90;;;;;;8313361;28;20399;-86
2023/07/16 02:16:41;;;;;;;3.20;2.83;;;18.40;99.90;;;;;;8315020;28;20026;-90
2023/07/16 02:20:43;;;;;;;6.45;4.07;;;18.30;99.90;;;;;;8315356;28;20076;-88
2023/07/16 02:24:43;;;;;;;4.47;3.58;;;18.10;99.90;;;;;;8315172;28;20058;-89
2023/07/16 02:28:44;;;;;;;5.78;4.03;;;18.10;99.90;;;;;;8322871;28;20727;-89
2023/07/16 02:32:45;;;;;;;4.65;3.63;;;18.10;99.90;;;;;;8310959;28;20030;-88
2023/07/16 02:36:45;;;;;;;5.38;3.78;;;17.70;99.90;;;;;;8315396;28;20040;-89
2023/07/16 02:40:47;;;;;;;6.03;4.10;;;17.50;99.90;;;;;;8314111;28;20087;-87
2023/07/16 02:44:48;;;;;;;6.93;4.22;;;17.70;99.90;;;;;;8314595;28;20022;-87
2023/07/16 02:48:48;;;;;;;6.80;4.57;;;17.70;99.90;;;;;;8294318;28;20014;-88
2023/07/16 02:52:49;;;;;;;6.53;4.13;;;17.60;99.90;;;;;;8313513;28;20017;-87
2023/07/16 02:56:49;;;;;;;4.38;3.67;;;17.60;99.90;;;;;;8313444;28;20029;-87
2023/07/16 03:00:50;;;;;;;7.70;4.43;;;17.60;99.90;;;;;;8313318;28;20041;-87
2023/07/16 03:04:50;;;;;;;8.60;4.75;;;17.50;99.90;;;;;;8292453;28;20096;-87
2023/07/16 03:08:51;;;;;;;4.90;3.78;;;17.60;99.90;;;;;;8314067;28;20068;-87
2023/07/16 03:12:51;;;;;;;6.95;3.75;;;17.50;99.90;;;;;;8313644;28;20024;-88
2023/07/16 03:16:52;;;;;;;6.07;3.85;;;17.50;99.90;;;;;;8312890;28;20113;-88
2023/07/16 03:20:52;;;;;;;3.78;2.97;;;17.40;99.90;;;;;;8313993;28;20037;-88
2023/07/16 03:24:53;;;;;;;5.70;3.30;;;17.50;99.90;;;;;;8309452;28;20033;-87
2023/07/16 03:28:55;;;;;;;6.78;3.63;;;17.30;99.90;;;;;;8313407;28;20033;-88
2023/07/16 03:32:55;;;;;;;9.05;3.67;;;17.30;99.90;;;;;;8310262;28;20014;-88
2023/07/16 03:36:56;;;;;;;3.65;3.17;;;17.20;99.90;;;;;;8310595;28;20084;-87
2023/07/16 03:40:56;;;;;;;5.55;3.33;;;17.30;99.90;;;;;;8312561;28;20022;-88
2023/07/16 03:44:57;;;;;;;5.03;3.60;;;17.50;99.90;;;;;;8310570;28;20070;-88
2023/07/16 03:48:57;;;;;;;4.85;3.95;;;17.50;99.90;;;;;;8293340;28;20030;-87
2023/07/16 03:52:58;;;;;;;5.57;3.33;;;17.50;99.90;;;;;;8310549;28;20046;-86
2023/07/16 03:56:59;;;;;;;5.18;3.65;;;17.50;99.90;;;;;;8294756;28;20086;-87
2023/07/16 04:00:59;;;;;;;4.03;3.50;;;17.70;99.90;;;;;;8296485;28;20033;-89
2023/07/16 04:05:00;;;;;;;5.13;3.70;;;17.60;99.90;;;;;;8287910;28;20034;-86
2023/07/16 04:09:00;;;;;;;3.17;2.28;;;17.70;99.90;;;;;;8290766;28;20518;-85
2023/07/16 04:13:01;;;;;;;3.35;2.00;;;17.80;99.90;;;;;;8311672;28;20516;-86
2023/07/16 04:17:01;;;;;;;2.20;2.00;;;17.90;99.90;;;;;;8290090;28;20033;-87
2023/07/16 04:21:02;;;;;;;3.45;2.70;;;17.70;99.90;;;;;;8294878;28;20041;-87
2023/07/16 04:25:03;;;;;;;2.20;2.00;;;17.60;99.90;;;;;;8293283;28;20034;-87
2023/07/16 04:29:04;;;;;;;3.05;2.25;;;17.50;99.90;;;;;;8311782;28;20072;-87
2023/07/16 04:33:05;;;;;;;2.92;2.33;;;17.60;99.90;;;;;;8306534;28;20491;-86
2023/07/16 04:37:05;;;;;;;4.15;2.33;;;17.40;99.90;;;;;;8310702;28;20488;-86
2023/07/16 04:41:06;;;;;;;4.70;2.50;;;17.40;99.90;;;;;;8311076;28;20026;-86
2023/07/16 04:45:07;;;;;;;4.22;2.22;;;17.50;99.90;;;;;;8310344;28;20066;-86
2023/07/16 04:49:07;;;;;;;3.78;2.40;;;17.30;99.90;;;;;;8294905;28;20026;-85
2023/07/16 04:53:08;;;;;;;2.92;2.33;;;17.30;99.90;;;;;;8295344;28;20128;-86
2023/07/16 04:57:09;;;;;;;3.92;2.20;;;17.20;99.90;;;;;;8292963;28;20034;-87
2023/07/16 05:01:10;;;;;;;5.13;2.20;;;17.20;99.90;;;;;;8296192;28;20037;-86
2023/07/16 05:05:10;;;;;;;4.88;2.40;;;17.20;99.90;;;;;;8316417;28;20496;-86
2023/07/16 05:09:11;;;;;;;3.40;2.63;;;17.10;99.90;;;;;;8312436;28;20019;-86
2023/07/16 05:13:12;;;;;;;3.42;2.40;;;17.00;99.90;;;;;;8295884;28;20045;-86
2023/07/16 05:17:13;;;;;;;3.45;2.60;;;17.00;99.90;;;;;;8301675;28;20046;-87
2023/07/16 05:21:13;;;;;;;3.28;2.60;;;17.00;99.90;;;;;;8296244;28;20038;-84
2023/07/16 05:25:14;;;;;;;3.30;2.20;;;16.70;99.90;;;;;;8310471;28;20038;-83
2023/07/16 05:29:14;;;;;;;3.13;2.15;;;16.70;99.90;;;;;;8289184;28;20034;-83
2023/07/16 05:33:15;;;;;;;2.88;2.20;;;16.70;99.90;;;;;;8296586;28;20022;-83
2023/07/16 05:37:15;;;;;;;2.53;2.33;;;16.60;99.90;;;;;;8304300;28;20018;-83
2023/07/16 05:41:16;;;;;;;2.95;2.55;;;16.60;99.90;;;;;;8315977;28;20060;-80
2023/07/16 05:45:17;;;;;;;2.83;2.47;;;16.60;99.90;;;;;;8310820;28;20061;-83
2023/07/16 05:49:17;;;;;;;2.80;2.30;;;16.60;99.90;;;;;;8316484;28;20088;-84
2023/07/16 05:53:18;;;;;;;4.00;2.22;;;16.60;99.90;;;;;;8303070;28;20025;-83
2023/07/16 05:57:18;;;;;;;4.13;2.40;;;16.70;99.90;;;;;;8284462;28;20573;-84
2023/07/16 06:01:19;;;;;;;3.45;2.42;;;16.70;99.90;;;;;;8291987;28;20026;-83
2023/07/16 06:05:19;;;;;;;3.40;2.15;;;16.70;99.90;;;;;;8288994;28;20399;-83
2023/07/16 06:09:20;;;;;;;5.45;2.47;;;16.70;99.90;;;;;;8312686;28;20025;-83
2023/07/16 06:13:20;;;;;;;3.40;2.30;;;16.70;99.90;;;;;;8293815;28;20408;-84
2023/07/16 06:17:21;;;;;;;2.95;2.60;;;16.80;99.90;;;;;;8297846;28;20030;-83
2023/07/16 06:21:21;;;;;;;3.38;2.55;;;16.90;99.90;;;;;;8289437;28;20030;-83
2023/07/16 06:25:22;;;;;;;3.53;2.58;;;16.90;99.90;;;;;;8285457;28;20040;-83
2023/07/16 06:29:23;;;;;;;7.93;2.72;;;16.90;99.90;;;;;;8293518;28;20030;-82
2023/07/16 06:33:25;;;;;;;2.80;2.50;;;17.00;99.90;;;;;;8303145;28;20054;-83
2023/07/16 06:37:25;;;;;;;2.80;2.42;;;17.20;99.90;;;;;;8331353;28;20030;-83
2023/07/16 06:41:26;;;;;;;2.83;2.15;;;17.70;99.90;;;;;;8296998;28;20061;-83
2023/07/16 06:45:26;;;;;;;2.78;2.10;;;18.20;99.90;;;;;;8279869;28;20034;-85
2023/07/16 06:49:27;;;;;;;3.35;1.80;;;18.60;99.90;;;;;;8298314;28;20061;-84
2023/07/16 06:53:27;;;;;;;2.60;1.75;;;18.80;99.90;;;;;;8308623;28;20029;-85
2023/07/16 06:57:28;;;;;;;2.35;1.58;;;18.60;99.90;;;;;;8308461;28;20064;-83
2023/07/16 07:01:28;;;;;;;3.10;1.70;;;18.90;99.90;;;;;;8273741;28;20500;-85
2023/07/16 07:05:29;;;;;;;2.78;1.75;;;18.50;99.90;;;;;;8274335;28;20117;-85
2023/07/16 07:09:29;;;;;;;1.85;1.58;;;18.50;99.90;;;;;;8288653;28;20026;-85
2023/07/16 07:13:30;;;;;;;3.40;1.88;;;18.60;99.90;;;;;;8304604;28;20031;-85
2023/07/16 07:17:31;;;;;;;3.70;1.70;;;18.60;99.90;;;;;;8299792;23;20427;-82
2023/07/16 07:21:31;;;;;;;2.17;1.80;;;19.20;99.90;;;;;;8295242;28;20411;-82
2023/07/16 07:25:32;;;;;;;3.72;1.63;;;20.60;99.90;;;;;;8293233;28;20029;-84
2023/07/16 07:29:32;;;;;;;2.70;1.67;;;22.30;99.90;;;;;;8305073;28;20488;-83
2023/07/16 07:33:33;;;;;;;2.05;1.40;;;23.20;99.90;;;;;;8302329;28;20171;-84
2023/07/16 07:37:33;;;;;;;1.70;1.30;;;24.10;99.90;;;;;;8288387;28;20030;-83
2023/07/16 07:41:34;;;;;;;1.60;1.27;;;24.40;99.90;;;;;;8297141;28;20026;-84
2023/07/16 07:45:34;;;;;;;1.50;1.40;;;24.50;99.90;;;;;;8283097;28;20554;-83
2023/07/16 07:49:35;;;;;;;1.67;1.30;;;24.00;99.90;;;;;;8284962;28;20076;-88
2023/07/16 07:53:36;;;;;;;2.35;1.45;;;22.80;99.90;;;;;;8302458;28;20204;-83
2023/07/16 07:57:36;;;;;;;1.73;1.25;;;22.10;99.90;;;;;;8273905;28;20069;-82
2023/07/16 08:01:37;;;;;;;1.52;1.23;;;21.80;99.90;;;;;;8295724;28;20022;-83
2023/07/16 08:05:37;;;;;;;2.15;1.20;;;22.10;99.90;;;;;;8270641;28;20033;-83
2023/07/16 08:09:38;;;;;;;2.13;1.23;;;22.30;99.90;;;;;;8293227;28;20032;-83
2023/07/16 08:13:38;;;;;;;2.25;1.15;;;22.70;99.90;;;;;;8301565;28;20037;-84
2023/07/16 08:17:40;;;;;;;2.63;1.38;;;23.00;99.90;;;;;;8277433;28;20033;-84
2023/07/16 08:21:40;;;;;;;1.52;1.17;;;23.30;99.90;;;;;;8288455;28;20048;-84
2023/07/16 08:25:42;;;;;;;2.78;1.30;;;24.00;99.90;;;;;;8286992;28;20092;-84
2023/07/16 08:29:43;;;;;;;4.07;1.50;;;24.10;99.90;;;;;;8279834;28;20026;-82
2023/07/16 08:33:43;;;;;;;3.70;1.67;;;25.20;99.90;;;;;;8292642;28;20096;-84
2023/07/16 08:37:44;;;;;;;1.65;1.38;;;25.30;99.90;;;;;;8276943;28;20034;-85
2023/07/16 08:41:45;;;;;;;2.10;1.00;;;25.70;99.90;;;;;;8290472;28;20092;-86
2023/07/16 08:45:48;;;;;;;5.28;1.80;;;26.10;99.90;;;;;;8300108;28;20080;-84
2023/07/16 08:49:55;;;;;;;2.50;1.45;;;27.00;99.90;;;;;;8271333;28;20656;-84
2023/07/16 08:53:56;;;;;;;2.38;1.08;;;26.20;99.90;;;;;;8330404;28;20013;-85
2023/07/16 08:57:58;;;;;;;4.70;1.13;;;25.40;99.90;;;;;;8298047;28;20492;-83
2023/07/16 09:02:01;;;;;;;2.85;1.20;;;25.10;99.90;;;;;;8289238;28;20047;-83
2023/07/16 09:06:07;;;;;;;1.80;1.38;;;24.80;99.90;;;;;;8294035;28;20121;-85
2023/07/16 09:10:08;;;;;;;2.13;1.52;;;24.40;99.90;;;;;;8280943;28;20508;-83
2023/07/16 09:14:08;;;;;;;4.28;1.48;;;24.70;99.90;;;;;;8286062;28;20122;-82
2023/07/16 09:18:10;;;;;;;1.77;1.38;;;25.30;99.90;;;;;;8282417;28;20033;-83
2023/07/16 09:22:10;;;;;;;2.40;1.30;;;25.80;99.90;;;;;;8310166;28;20026;-83
2023/07/16 09:26:11;;;;;;;2.65;1.30;;;26.10;99.90;;;;;;8294948;28;20022;-83
2023/07/16 09:30:15;;;;;;;4.22;1.60;;;26.00;99.90;;;;;;8277931;28;20085;-84
2023/07/16 09:34:16;;;;;;;1.73;1.20;;;26.20;99.90;;;;;;8276588;28;20046;-84
2023/07/16 09:38:18;;;;;;;1.75;1.30;;;26.90;99.90;;;;;;8300076;28;20068;-84
2023/07/16 09:42:20;;;;;;;2.13;1.30;;;27.20;99.90;;;;;;8308930;28;20049;-83
2023/07/16 09:46:21;;;;;;;2.40;1.67;;;27.20;99.90;;;;;;8285685;28;20038;-86
2023/07/16 09:50:31;;;;;;;1.88;1.38;;;27.40;99.90;;;;;;8289188;28;20087;-83
2023/07/16 09:54:35;;;;;;;2.72;1.70;;;26.70;99.90;;;;;;8309724;28;20022;-83
2023/07/16 09:58:36;;;;;;;2.15;1.60;;;26.50;99.90;;;;;;8292703;28;20081;-83
2023/07/16 10:02:37;;;;;;;3.17;1.40;;;26.70;99.90;;;;;;8319278;28;20155;-83
2023/07/16 10:06:52;;;;;;;1.70;1.48;;;26.00;99.90;;;;;;8319871;28;20037;-83
2023/07/16 10:10:56;;;;;;;4.32;1.60;;;24.90;99.90;;;;;;8304509;28;20030;-83
2023/07/16 10:14:57;;;;;;;1.95;1.48;;;24.50;99.90;;;;;;8312172;28;20028;-83
2023/07/16 10:19:00;;;;;;;1.98;1.40;;;24.60;99.90;;;;;;8317289;28;20510;-83
2023/07/16 10:23:12;;;;;;;3.63;1.35;;;26.00;99.90;;;;;;8317303;28;20022;-83
2023/07/16 10:27:14;;;;;;;2.30;1.55;;;26.50;99.90;;;;;;8301884;28;20037;-83
2023/07/16 10:31:22;;;;;;;2.40;1.70;;;25.50;99.90;;;;;;8299410;28;20033;-84
2023/07/16 10:35:22;;;;;;;2.42;1.50;;;26.10;99.90;;;;;;8314311;28;20030;-84
2023/07/16 10:39:23;;;;;;;1.33;1.23;;;26.70;99.90;;;;;;8298024;28;20034;-84
2023/07/16 10:43:25;;;;;;;2.30;1.40;;;27.30;99.90;;;;;;8300418;28;20040;-83
2023/07/16 10:47:37;;;;;;;4.10;1.67;;;26.70;99.90;;;;;;8298735;28;20026;-84
2023/07/16 10:51:38;;;;;;;1.20;1.10;;;26.80;99.90;;;;;;8306835;28;20093;-83
2023/07/16 10:55:40;;;;;;;2.97;1.52;;;26.90;99.90;;;;;;8298552;28;20025;-84
2023/07/16 10:59:43;;;;;;;4.15;1.83;;;27.00;99.90;;;;;;8296338;28;20033;-83
2023/07/16 11:03:43;;;;;;;1.67;1.35;;;28.20;99.90;;;;;;8292107;28;20407;-83
2023/07/16 11:07:44;;;;;;;3.05;2.03;;;27.30;99.90;;;;;;8315949;28;20076;-84
2023/07/16 11:11:45;;;;;;;2.08;1.60;;;26.10;99.90;;;;;;8315683;28;20118;-84
2023/07/16 11:15:45;;;;;;;1.70;1.58;;;26.40;99.90;;;;;;8308635;28;20029;-84
2023/07/16 11:19:48;;;;;;;2.17;1.50;;;25.70;99.90;;;;;;8313870;28;20038;-84
2023/07/16 11:23:48;;;;;;;1.70;1.40;;;25.50;99.90;;;;;;8299623;28;20029;-83
2023/07/16 11:27:53;;;;;;;1.98;1.35;;;25.20;99.90;;;;;;8310638;28;20026;-84
2023/07/16 11:31:54;;;;;;;5.65;1.30;;;25.20;99.90;;;;;;8276353;28;20026;-84
2023/07/16 11:35:55;;;;;;;2.33;1.50;;;25.80;99.90;;;;;;8279997;28;20034;-83
2023/07/16 11:40:03;;;;;;;1.80;1.17;;;27.30;99.90;;;;;;8284952;28;20491;-85
2023/07/16 11:44:07;;;;;;;2.13;1.33;;;27.90;99.90;;;;;;8280981;28;20717;-84
2023/07/16 11:48:07;;;;;;;2.10;1.52;;;28.30;99.90;;;;;;8285367;28;20120;-83
2023/07/16 11:52:08;;;;;;;2.85;1.50;;;28.80;99.90;;;;;;8302969;28;20484;-84
2023/07/16 11:56:09;;;;;;;2.42;1.70;;;28.70;99.90;;;;;;8280929;28;20037;-84
2023/07/16 12:00:11;;;;;;;3.38;1.40;;;30.40;99.90;;;;;;8277539;28;20029;-85
2023/07/16 12:04:12;;;;;;;5.53;1.35;;;31.20;98.30;;;;;;8287138;28;20041;-84
2023/07/16 12:08:14;;;;;;;2.83;1.63;;;29.80;99.90;;;;;;8293674;28;20033;-83
2023/07/16 12:12:15;;;;;;;1.88;1.40;;;28.60;99.90;;;;;;8312968;28;20484;-84
2023/07/16 12:16:15;;;;;;;2.15;1.63;;;29.90;99.90;;;;;;8312019;28;20062;-84
2023/07/16 12:20:16;;;;;;;1.75;1.33;;;29.50;99.70;;;;;;8310108;28;20034;-84
2023/07/16 12:24:17;;;;;;;1.75;1.33;;;28.90;99.90;;;;;;8329449;28;20474;-84
2023/07/16 12:28:17;;;;;;;2.28;1.40;;;29.30;99.40;;;;;;8312045;28;20518;-84
2023/07/16 12:32:18;;;;;;;1.88;1.30;;;29.60;98.60;;;;;;8308116;28;20027;-84
2023/07/16 12:36:19;;;;;;;3.22;1.60;;;31.30;99.90;;;;;;8300323;28;20030;-84
2023/07/16 12:40:19;;;;;;;2.60;1.50;;;32.00;92.50;;;;;;8295482;28;20558;-84
2023/07/16 12:44:20;;;;;;;2.45;1.50;;;31.30;96.50;;;;;;8319244;28;20036;-85
2023/07/16 12:48:21;;;;;;;3.03;1.52;;;31.50;98.70;;;;;;8316626;28;20025;-85
2023/07/16 12:52:21;;;;;;;3.55;1.40;;;33.80;94.00;;;;;;8296753;28;20053;-84
2023/07/16 12:56:22;;;;;;;1.63;1.30;;;33.90;90.50;;;;;;8311511;28;20495;-84
2023/07/16 13:00:22;;;;;;;1.50;1.40;;;31.90;91.30;;;;;;8289506;28;20019;-85
2023/07/16 13:04:23;;;;;;;2.10;1.80;;;30.10;94.60;;;;;;8295507;28;20029;-85
2023/07/16 13:08:23;;;;;;;2.33;1.52;;;30.10;98.40;;;;;;8329090;28;20041;-85
2023/07/16 13:12:24;;;;;;;2.28;1.67;;;29.80;94.70;;;;;;8318414;28;20045;-85
2023/07/16 13:20:29;;;;;;;2.28;1.38;;;29.40;99.50;;;;;;8235676;28;20129;-85
2023/07/16 13:24:30;;;;;;;2.38;1.70;;;30.00;97.00;;;;;;8244071;28;20444;-83
2023/07/16 13:28:30;;;;;;;2.20;1.77;;;29.40;97.10;;;;;;8223408;28;20019;-83
2023/07/16 13:32:31;;;;;;;2.92;1.50;;;29.90;96.30;;;;;;8203661;28;20452;-82
2023/07/16 13:36:31;;;;;;;3.53;1.80;;;28.90;95.90;;;;;;8210210;28;20023;-82
2023/07/16 13:40:32;;;;;;;2.00;1.45;;;27.40;98.80;;;;;;8219985;28;20110;-82
2023/07/16 13:44:35;;;;;;;3.33;1.60;;;26.60;99.90;;;;;;8227437;28;20484;-82
2023/07/16 13:48:36;;;;;;;2.13;1.73;;;25.90;99.90;;;;;;8203228;28;20059;-84
2023/07/16 13:52:36;;;;;;;3.25;1.92;;;26.60;99.90;;;;;;8195241;28;20509;-83
2023/07/16 13:56:37;;;;;;;1.88;1.50;;;29.50;99.90;;;;;;8194666;28;20031;-83
2023/07/16 14:00:37;;;;;;;1.83;1.48;;;32.60;95.20;;;;;;8210984;28;20470;-82
2023/07/16 14:04:38;;;;;;;2.67;1.70;;;33.90;92.50;;;;;;8201335;28;20027;-86
2023/07/16 14:08:39;;;;;;;3.75;1.60;;;33.30;92.90;;;;;;8213243;28;20028;-84
2023/07/16 14:12:39;;;;;;;1.60;1.50;;;34.40;88.90;;;;;;8206214;28;20027;-82
2023/07/16 14:16:40;;;;;;;3.08;1.80;;;34.50;84.00;;;;;;8197851;28;20035;-84
2023/07/16 14:20:41;;;;;;;2.30;1.73;;;35.20;86.00;;;;;;8217271;28;20086;-84
2023/07/16 14:24:42;;;;;;;2.08;1.70;;;34.90;82.70;;;;;;8224348;28;20027;-83
2023/07/16 14:28:42;;;;;;;4.20;1.90;;;35.50;81.60;;;;;;8208749;28;20498;-83
2023/07/16 14:32:43;;;;;;;1.88;1.60;;;34.50;82.80;;;;;;8193682;28;20075;-83
2023/07/16 14:36:44;;;;;;;2.42;1.50;;;33.20;84.90;;;;;;8201858;28;20133;-83
2023/07/16 14:40:44;;;;;;;2.95;1.75;;;34.30;86.00;;;;;;8218975;28;20045;-83
2023/07/16 14:44:45;;;;;;;2.40;1.58;;;36.50;80.00;;;;;;8210191;28;20285;-83
2023/07/16 14:48:46;;;;;;;1.75;1.63;;;35.10;79.70;;;;;;8194423;28;20047;-83
2023/07/16 14:52:46;;;;;;;2.10;1.70;;;32.40;85.10;;;;;;8188077;28;20019;-83
2023/07/16 14:56:47;;;;;;;2.65;1.70;;;32.30;87.80;;;;;;8216415;28;20033;-82
2023/07/16 15:00:48;;;;;;;1.75;1.52;;;31.10;90.10;;;;;;8199149;28;20038;-82
2023/07/16 15:04:49;;;;;;;4.93;1.80;;;29.70;92.40;;;;;;8199593;28;20031;-83
2023/07/16 15:08:50;;;;;;;3.72;2.00;;;32.80;90.40;;;;;;8199053;28;20078;-83
2023/07/16 15:12:51;;;;;;;4.13;1.92;;;34.40;81.10;;;;;;8199271;28;20433;-84
2023/07/16 15:16:51;;;;;;;2.90;1.83;;;35.70;76.50;;;;;;8190269;28;20024;-84
2023/07/16 15:21:00;;;;;;;2.97;1.88;;;36.30;75.30;;;;;;8193727;28;20066;-84
2023/07/16 15:25:00;;;;;;;2.20;1.90;;;36.30;70.00;;;;;;8198162;28;20019;-83
2023/07/16 15:29:01;;;;;;;2.13;1.80;;;36.30;72.20;;;;;;8202015;28;20634;-84
2023/07/16 15:33:01;;;;;;;2.30;2.00;;;36.10;75.70;;;;;;8199816;28;20031;-84
2023/07/16 15:37:02;;;;;;;2.95;1.90;;;34.10;75.20;;;;;;8200914;28;20027;-83
2023/07/16 15:41:04;;;;;;;2.33;1.50;;;32.60;81.80;;;;;;8200140;28;20030;-83
2023/07/16 15:45:06;;;;;;;2.42;1.88;;;32.80;83.20;;;;;;8188731;28;20054;-84
2023/07/16 15:49:06;;;;;;;4.25;2.00;;;32.90;80.70;;;;;;8196350;28;20071;-84
2023/07/16 15:53:07;;;;;;;2.28;2.05;;;31.70;84.40;;;;;;8199395;28;20035;-83
2023/07/16 15:57:07;;;;;;;3.08;2.10;;;30.50;89.50;;;;;;8198916;28;20031;-83
2023/07/16 16:01:08;;;;;;;2.13;1.80;;;29.40;91.00;;;;;;8196674;28;20074;-84
2023/07/16 16:05:09;;;;;;;5.55;2.08;;;29.00;92.70;;;;;;8197957;28;20074;-83
2023/07/16 16:09:10;;;;;;;3.97;2.10;;;28.50;93.70;;;;;;8198881;28;20024;-83
2023/07/16 16:13:10;;;;;;;2.20;1.90;;;28.10;94.40;;;;;;8201714;28;20058;-83
2023/07/16 16:17:11;;;;;;;2.60;1.92;;;28.10;94.00;;;;;;8199864;28;20042;-84
2023/07/16 16:21:11;;;;;;;3.47;2.33;;;28.00;93.70;;;;;;8200955;28;20058;-84
2023/07/16 16:25:12;;;;;;;3.45;2.22;;;27.50;95.90;;;;;;8197841;28;20035;-83
2023/07/16 16:29:13;;;;;;;3.65;2.20;;;27.20;97.00;;;;;;8200361;28;20024;-84
2023/07/16 16:33:13;;;;;;;3.17;2.10;;;27.30;96.40;;;;;;8210499;28;20023;-84
2023/07/16 16:37:14;;;;;;;3.50;2.10;;;27.40;96.20;;;;;;8198562;28;20030;-83
2023/07/16 16:41:15;;;;;;;3.67;2.45;;;27.40;96.50;;;;;;8198538;28;20027;-83
2023/07/16 16:45:16;;;;;;;3.42;2.00;;;27.70;96.30;;;;;;8196949;28;20401;-84
2023/07/16 16:49:17;;;;;;;2.47;2.20;;;27.70;96.10;;;;;;8196823;28;20027;-84
2023/07/16 16:53:17;;;;;;;2.65;2.05;;;27.80;99.40;;;;;;8197839;28;20027;-84
2023/07/16 16:57:18;;;;;;;2.40;2.20;;;27.30;97.70;;;;;;8193967;28;20038;-84
2023/07/16 17:01:19;;;;;;;2.35;2.15;;;26.70;98.30;;;;;;8188817;28;20510;-83
2023/07/16 17:05:20;;;;;;;3.60;2.40;;;26.10;98.90;;;;;;8195745;28;20035;-84
2023/07/16 17:09:20;;;;;;;2.63;2.22;;;25.70;99.90;;;;;;8196779;28;20494;-83
2023/07/16 17:13:21;;;;;;;3.03;2.28;;;25.60;99.90;;;;;;8192261;28;20027;-83
2023/07/16 17:17:22;;;;;;;3.67;2.47;;;25.20;99.90;;;;;;8195191;28;20122;-84
2023/07/16 17:21:25;;;;;;;3.55;2.47;;;25.20;99.90;;;;;;8195467;28;20027;-83
2023/07/16 17:25:26;;;;;;;3.65;2.10;;;25.00;99.90;;;;;;8216310;28;20027;-85
2023/07/16 17:29:26;;;;;;;4.55;2.47;;;24.90;99.90;;;;;;8197595;28;20027;-86
2023/07/16 17:33:27;;;;;;;4.03;2.38;;;25.30;99.90;;;;;;8196932;28;20520;-83
2023/07/16 17:37:27;;;;;;;2.78;2.47;;;25.40;99.90;;;;;;8197724;28;20038;-84
2023/07/16 17:41:28;;;;;;;2.65;2.10;;;25.20;99.90;;;;;;8199196;28;20019;-83
2023/07/16 17:45:29;;;;;;;5.05;2.30;;;25.00;99.90;;;;;;8204765;28;20037;-84
2023/07/16 17:49:29;;;;;;;3.83;2.30;;;24.70;99.90;;;;;;8197343;28;20110;-83
2023/07/16 17:53:32;;;;;;;4.20;2.35;;;24.50;99.90;;;;;;8201170;28;20023;-83
2023/07/16 17:57:33;;;;;;;3.00;2.38;;;24.40;99.90;;;;;;8200300;28;20102;-83
2023/07/16 18:01:34;;;;;;;2.83;2.00;;;24.20;99.90;;;;;;8202399;28;20028;-83
2023/07/16 18:05:34;;;;;;;3.17;2.30;;;24.00;99.90;;;;;;8196808;28;20476;-83
2023/07/16 18:09:35;;;;;;;3.00;2.47;;;24.00;99.90;;;;;;8213767;28;20027;-83
2023/07/16 18:13:35;;;;;;;3.85;2.38;;;23.90;99.90;;;;;;8202093;28;20023;-83
2023/07/16 18:17:36;;;;;;;4.40;2.30;;;23.60;99.90;;;;;;8201565;28;20031;-83
2023/07/16 18:21:37;;;;;;;4.32;2.53;;;23.40;99.90;;;;;;8203204;28;20489;-84
2023/07/16 18:25:38;;;;;;;3.88;2.70;;;23.00;99.90;;;;;;8202834;28;20523;-83
2023/07/16 18:29:38;;;;;;;5.68;2.80;;;22.70;99.90;;;;;;8217933;28;20023;-84
2023/07/16 18:33:39;;;;;;;3.08;2.47;;;23.10;99.90;;;;;;8203093;28;20046;-84
2023/07/16 18:37:40;;;;;;;3.10;2.47;;;23.10;99.90;;;;;;8199615;28;20208;-83
2023/07/16 18:41:41;;;;;;;5.30;2.60;;;22.80;99.90;;;;;;8199607;28;20067;-82
2023/07/16 18:45:42;;;;;;;3.92;2.38;;;22.60;99.90;;;;;;8207741;28;20516;-84
2023/07/16 18:49:43;;;;;;;3.20;2.88;;;22.20;99.90;;;;;;8185751;28;20122;-83
2023/07/16 18:53:43;;;;;;;6.22;2.38;;;22.10;99.90;;;;;;8201661;28;20027;-83
2023/07/16 18:57:44;;;;;;;3.10;2.78;;;22.50;99.90;;;;;;8200702;28;20033;-83
2023/07/16 19:01:44;;;;;;;3.38;2.90;;;22.10;99.90;;;;;;8187219;28;20020;-83
2023/07/16 19:05:45;;;;;;;3.10;2.80;;;22.10;99.90;;;;;;8197743;28;20031;-82
2023/07/16 19:09:45;;;;;;;4.22;2.50;;;21.70;99.90;;;;;;8198966;28;20597;-85
2023/07/16 19:13:46;;;;;;;3.20;2.70;;;21.50;99.90;;;;;;8201754;28;20070;-82
2023/07/16 19:17:46;;;;;;;5.18;3.40;;;21.30;99.90;;;;;;8205732;28;20078;-81
2023/07/16 19:21:47;;;;;;;4.70;3.15;;;21.20;99.90;;;;;;8193983;28;20035;-81
2023/07/16 19:25:47;;;;;;;4.75;3.42;;;21.10;99.90;;;;;;8200445;28;20039;-82
2023/07/16 19:29:48;;;;;;;4.22;3.40;;;21.00;99.90;;;;;;8200312;28;20049;-83
2023/07/16 19:33:49;;;;;;;4.45;3.58;;;21.00;99.90;;;;;;8193260;28;20023;-82
2023/07/16 19:37:50;;;;;;;4.75;3.13;;;21.00;99.90;;;;;;8201291;28;20035;-82
2023/07/16 19:41:50;;;;;;;4.82;2.95;;;21.30;99.90;;;;;;8195223;28;20046;-84
2023/07/16 19:46:00;;;;;;;5.18;3.00;;;21.50;99.90;;;;;;8199493;28;20035;-82
2023/07/16 19:50:05;;;;;;;4.43;3.33;;;21.00;99.90;;;;;;8189889;28;20032;-82
2023/07/16 19:54:06;;;;;;;5.15;3.30;;;20.50;99.90;;;;;;8199377;28;20118;-81
2023/07/16 19:58:07;;;;;;;3.78;3.35;;;20.50;99.90;;;;;;8198911;28;20091;-81
2023/07/16 20:02:08;;;;;;;3.80;3.35;;;20.30;99.90;;;;;;8199185;28;20505;-82
2023/07/16 20:06:10;;;;;;;4.07;3.22;;;20.30;99.90;;;;;;8197758;28;20517;-81
2023/07/16 20:10:11;;;;;;;5.97;3.88;;;20.30;99.90;;;;;;8199532;28;20030;-81
2023/07/16 20:14:11;;;;;;;4.07;3.22;;;20.50;99.90;;;;;;8198917;28;20025;-81
2023/07/16 20:18:15;;;;;;;5.10;3.25;;;20.60;99.90;;;;;;8211644;28;20035;-81
2023/07/16 20:22:16;;;;;;;3.83;3.42;;;20.20;99.90;;;;;;8196884;28;20086;-81
2023/07/16 20:26:16;;;;;;;3.72;3.20;;;19.90;99.90;;;;;;8199364;28;20035;-81
2023/07/16 20:30:17;;;;;;;6.60;3.60;;;19.80;99.90;;;;;;8213120;28;20027;-81
2023/07/16 20:34:17;;;;;;;6.72;3.83;;;19.70;99.90;;;;;;8200374;28;20027;-82
2023/07/16 20:38:18;;;;;;;7.00;3.70;;;19.70;99.90;;;;;;8199985;28;20023;-81
2023/07/16 20:42:18;;;;;;;7.53;4.38;;;19.60;99.90;;;;;;8197265;28;20026;-81
2023/07/16 20:46:19;;;;;;;6.22;4.28;;;19.30;99.90;;;;;;8200223;28;20034;-81
2023/07/16 20:50:22;;;;;;;5.05;4.32;;;19.30;99.90;;;;;;8192902;28;20031;-81
2023/07/16 20:54:25;;;;;;;6.97;3.88;;;19.20;99.90;;;;;;8191927;28;20633;-81
2023/07/16 20:58:26;;;;;;;4.75;4.05;;;19.30;99.90;;;;;;8190513;28;20034;-81